Time;durP1;ratioP1;P1;durP2;ratioP2;P2;SDS_P1;SDS_P2;PMS_P1;PMS_P2;Temp;Humidity;BMP_temperature;BMP_pressure;BME280_temperature;BME280_humidity;BME280_pressure;Samples;Min_cycle;Max_cycle;Signal;HPM_P1;HPM_P2
2022/05/02 00:00:00;;;;;;;9.10;7.25;;;;;;;13.97;57.55;100750.31;5090797;28;20024;-74
2022/05/02 00:02:25;;;;;;;10.80;7.35;;;;;;;13.92;57.79;100746.81;5099948;28;20031;-74
2022/05/02 00:04:51;;;;;;;9.63;6.40;;;;;;;13.88;58.44;100743.81;5079906;28;20066;-74
2022/05/02 00:07:16;;;;;;;8.63;7.03;;;;;;;13.86;58.58;100744.13;5060301;28;20020;-74
2022/05/02 00:09:42;;;;;;;8.95;7.07;;;;;;;13.83;58.45;100750.34;5062720;28;20426;-74
2022/05/02 00:12:08;;;;;;;9.60;6.82;;;;;;;13.75;59.22;100748.25;5115227;28;20054;-75
2022/05/02 00:14:33;;;;;;;8.75;7.18;;;;;;;13.73;59.04;100744.13;5062707;28;20054;-75
2022/05/02 00:16:59;;;;;;;9.23;7.63;;;;;;;13.72;59.67;100748.06;5099209;28;20610;-75
2022/05/02 00:19:24;;;;;;;9.63;7.60;;;;;;;13.68;59.84;100744.22;5079655;28;20028;-75
2022/05/02 00:21:50;;;;;;;9.23;6.90;;;;;;;13.66;60.14;100744.53;5114854;28;20035;-75
2022/05/02 00:24:16;;;;;;;11.27;7.70;;;;;;;13.65;59.66;100742.91;5099700;28;20062;-75
2022/05/02 00:26:41;;;;;;;9.85;7.55;;;;;;;13.59;60.42;100742.13;5118049;28;20038;-75
2022/05/02 00:29:07;;;;;;;10.57;7.53;;;;;;;13.54;60.17;100739.47;5117530;28;20038;-75
2022/05/02 00:31:32;;;;;;;9.65;7.43;;;;;;;13.56;60.96;100739.16;5062567;28;20040;-75
2022/05/02 00:33:58;;;;;;;12.43;8.50;;;;;;;13.50;61.61;100732.03;5088241;28;20032;-75
2022/05/02 00:36:24;;;;;;;9.25;7.53;;;;;;;13.48;61.40;100731.50;5062974;28;20027;-75
2022/05/02 00:38:50;;;;;;;10.50;7.38;;;;;;;13.47;61.50;100733.47;5062491;28;20249;-75
2022/05/02 00:41:15;;;;;;;12.52;7.20;;;;;;;13.46;61.28;100734.59;5076550;28;20046;-75
2022/05/02 00:43:41;;;;;;;9.82;7.22;;;;;;;13.44;60.95;100741.63;5082728;28;20483;-75
2022/05/02 00:46:20;;;;;;;9.15;7.13;;;;;;;13.41;61.79;100740.28;5078631;28;20054;-75
2022/05/02 00:48:46;;;;;;;9.75;7.40;;;;;;;13.41;61.08;100735.53;5099382;28;20483;-75
2022/05/02 00:51:12;;;;;;;9.77;6.55;;;;;;;13.40;60.68;100731.09;5099128;28;20028;-75
2022/05/02 00:53:38;;;;;;;9.68;7.28;;;;;;;13.38;61.11;100740.91;5117080;28;20023;-75
2022/05/02 00:56:03;;;;;;;10.32;6.88;;;;;;;13.36;60.11;100741.19;5098929;28;20051;-75
2022/05/02 00:58:29;;;;;;;8.93;7.15;;;;;;;13.35;60.73;100747.09;5099356;28;20708;-75
2022/05/02 01:00:54;;;;;;;10.27;7.28;;;;;;;13.35;61.17;100727.56;5041678;28;20075;-75
2022/05/02 01:03:20;;;;;;;8.75;6.47;;;;;;;13.35;61.37;100741.50;5107779;28;20024;-75
2022/05/02 01:08:32;;;;;;;8.93;6.10;;;;;;;13.31;59.95;100724.53;5073240;28;20020;-75
2022/05/02 01:10:57;;;;;;;8.85;6.40;;;;;;;13.31;59.95;100730.13;5075328;28;20110;-75
2022/05/02 01:13:44;;;;;;;8.40;6.35;;;;;;;13.29;60.35;100723.19;5092649;28;20067;-75
2022/05/02 01:16:18;;;;;;;8.45;6.18;;;;;;;13.27;60.58;100717.13;5116647;28;20578;-75
2022/05/02 01:18:45;;;;;;;8.07;6.18;;;;;;;13.24;60.25;100729.69;5116944;28;20040;-75
2022/05/02 01:21:20;;;;;;;8.50;6.53;;;;;;;13.23;60.69;100729.97;5098728;28;20103;-75
2022/05/02 01:23:50;;;;;;;11.55;7.15;;;;;;;13.22;61.24;100725.53;5106031;28;20043;-75
2022/05/02 01:26:16;;;;;;;10.43;6.72;;;;;;;13.18;60.92;100723.38;5080358;28;20020;-75
2022/05/02 01:28:42;;;;;;;10.10;6.90;;;;;;;13.15;60.70;100729.56;5096796;28;20031;-75
2022/05/02 01:31:07;;;;;;;9.25;6.65;;;;;;;13.15;61.19;100731.53;5119563;27;20032;-75
2022/05/02 01:33:34;;;;;;;9.20;6.35;;;;;;;13.14;61.45;100725.09;5116695;28;20035;-75
2022/05/02 01:36:00;;;;;;;8.25;6.78;;;;;;;13.11;61.84;100731.28;5116638;28;20031;-75
2022/05/02 01:38:25;;;;;;;11.50;7.20;;;;;;;13.11;60.77;100736.03;5117076;28;20767;-75
2022/05/02 01:40:51;;;;;;;7.30;6.20;;;;;;;13.10;61.29;100734.41;5081517;28;20065;-74
2022/05/02 01:43:16;;;;;;;7.40;6.05;;;;;;;13.08;61.02;100737.47;5081770;28;20205;-75
2022/05/02 01:45:42;;;;;;;8.27;6.25;;;;;;;13.04;60.62;100736.44;5116308;28;20380;-75
2022/05/02 01:48:08;;;;;;;8.88;6.32;;;;;;;13.02;60.88;100727.56;5116609;28;20027;-75
2022/05/02 01:50:33;;;;;;;10.15;6.53;;;;;;;13.02;61.17;100730.34;5077842;28;20036;-75
2022/05/02 01:52:59;;;;;;;9.13;6.30;;;;;;;12.98;60.22;100734.84;5116338;28;20028;-75
2022/05/02 01:55:24;;;;;;;8.07;5.82;;;;;;;12.97;60.47;100725.66;5107942;28;20101;-75
2022/05/02 01:57:49;;;;;;;9.48;5.88;;;;;;;12.95;60.27;100732.69;5098559;28;20027;-75
2022/05/02 02:00:15;;;;;;;8.25;5.97;;;;;;;12.91;60.32;100723.28;5098091;28;20031;-75
2022/05/02 02:02:41;;;;;;;7.80;6.18;;;;;;;12.88;60.20;100724.72;5080116;28;20028;-75
2022/05/02 02:07:50;;;;;;;9.95;6.07;;;;;;;12.83;60.31;100726.75;5069693;28;20025;-75
2022/05/02 02:10:16;;;;;;;7.90;6.10;;;;;;;12.81;60.53;100724.28;5064446;28;20061;-75
2022/05/02 02:12:41;;;;;;;8.65;6.03;;;;;;;12.75;60.33;100717.94;5077944;28;20024;-75
2022/05/02 02:15:08;;;;;;;9.45;6.30;;;;;;;12.74;60.43;100718.28;5058273;28;20404;-75
2022/05/02 02:17:33;;;;;;;8.85;6.22;;;;;;;12.72;60.65;100713.00;5098097;28;20494;-75
2022/05/02 02:19:59;;;;;;;8.93;5.95;;;;;;;12.68;60.72;100714.75;5098070;28;20012;-75
2022/05/02 02:22:24;;;;;;;8.63;6.18;;;;;;;12.66;61.66;100717.00;5061481;28;20043;-75
2022/05/02 02:24:49;;;;;;;8.68;6.32;;;;;;;12.64;61.72;100722.03;5094386;28;20028;-75
2022/05/02 02:27:15;;;;;;;9.32;6.50;;;;;;;12.64;61.27;100713.69;5106430;28;20030;-75
2022/05/02 02:29:41;;;;;;;8.10;5.72;;;;;;;12.63;61.39;100716.78;5097720;28;20032;-75
2022/05/02 02:32:07;;;;;;;7.38;6.43;;;;;;;12.57;61.46;100712.44;5097936;28;20024;-75
2022/05/02 02:34:32;;;;;;;7.68;5.82;;;;;;;12.56;62.13;100708.78;5081168;28;20024;-75
2022/05/02 02:36:58;;;;;;;8.35;6.50;;;;;;;12.52;61.28;100707.75;5116315;28;20036;-75
2022/05/02 02:39:23;;;;;;;6.70;6.00;;;;;;;12.48;61.79;100715.88;5115950;28;20043;-75
2022/05/02 02:41:49;;;;;;;8.48;6.35;;;;;;;12.50;61.78;100704.44;5119067;28;20034;-75
2022/05/02 02:44:14;;;;;;;8.18;6.20;;;;;;;12.46;61.82;100723.72;5066102;28;20028;-75
2022/05/02 02:46:40;;;;;;;10.07;6.80;;;;;;;12.45;62.08;100712.84;5080415;28;20036;-75
2022/05/02 02:49:05;;;;;;;8.00;6.25;;;;;;;12.44;61.93;100700.06;5046473;28;20027;-75
2022/05/02 02:51:30;;;;;;;8.15;6.28;;;;;;;12.41;61.54;100701.50;5119732;28;20031;-75
2022/05/02 02:53:56;;;;;;;8.02;6.50;;;;;;;12.40;62.65;100704.59;5101605;28;20036;-75
2022/05/02 02:56:22;;;;;;;8.77;6.68;;;;;;;12.39;62.62;100709.31;5044133;28;20421;-75
2022/05/02 02:58:47;;;;;;;8.75;6.85;;;;;;;12.40;61.63;100704.59;5042678;28;20032;-75
2022/05/02 03:01:13;;;;;;;8.23;6.82;;;;;;;12.38;61.96;100704.91;5080803;28;20086;-75
2022/05/02 03:03:38;;;;;;;9.70;7.00;;;;;;;12.37;63.47;100703.25;5080758;28;20031;-75
2022/05/02 03:06:05;;;;;;;10.35;8.10;;;;;;;12.35;61.94;100708.28;5064095;28;20020;-75
2022/05/02 03:08:36;;;;;;;10.18;6.72;;;;;;;12.31;61.60;100704.44;5096035;28;20468;-75
2022/05/02 03:11:01;;;;;;;10.15;8.18;;;;;;;12.32;62.82;100711.69;5081020;28;20035;-75
2022/05/02 03:13:27;;;;;;;10.82;7.72;;;;;;;12.22;63.73;100704.28;5064238;28;20476;-75
2022/05/02 03:15:53;;;;;;;9.40;6.78;;;;;;;12.23;63.29;100702.31;5043833;28;20086;-75
2022/05/02 03:18:18;;;;;;;10.88;7.55;;;;;;;12.21;63.96;100710.16;5094261;28;20039;-75
2022/05/02 03:20:44;;;;;;;11.15;7.65;;;;;;;12.22;63.50;100707.06;5098689;28;20066;-75
2022/05/02 03:23:09;;;;;;;10.20;7.28;;;;;;;12.24;63.27;100706.78;5097555;28;20028;-75
2022/05/02 03:25:35;;;;;;;9.38;6.95;;;;;;;12.22;63.76;100704.28;5080591;28;20028;-75
2022/05/02 03:28:00;;;;;;;9.10;6.53;;;;;;;12.25;63.26;100705.63;5098597;28;20028;-75
2022/05/02 03:30:26;;;;;;;8.95;6.30;;;;;;;12.21;64.32;100705.41;5098263;28;20039;-75
2022/05/02 03:32:51;;;;;;;8.80;6.80;;;;;;;12.19;63.83;100713.25;5098437;28;20035;-75
2022/05/02 03:35:16;;;;;;;11.43;7.57;;;;;;;12.17;65.05;100709.09;5098481;28;20028;-75
2022/05/02 03:37:42;;;;;;;8.38;6.78;;;;;;;12.16;64.86;100710.22;5080398;28;20496;-75
2022/05/02 03:40:08;;;;;;;7.40;6.20;;;;;;;12.17;64.94;100706.31;5080717;28;20028;-74
2022/05/02 03:42:34;;;;;;;8.68;6.50;;;;;;;12.14;65.31;100706.91;5079303;28;20134;-75
2022/05/02 03:45:00;;;;;;;8.13;6.30;;;;;;;12.11;65.38;100708.34;5047521;28;20104;-75
2022/05/02 03:47:26;;;;;;;8.43;6.47;;;;;;;12.12;65.45;100700.81;5091176;28;20024;-75
2022/05/02 03:49:51;;;;;;;8.38;6.85;;;;;;;12.09;65.87;100705.03;5080000;28;20480;-75
2022/05/02 03:52:17;;;;;;;9.18;7.10;;;;;;;12.08;65.71;100708.94;5079126;28;20033;-75
2022/05/02 03:54:42;;;;;;;8.50;6.57;;;;;;;12.08;65.43;100706.16;5098127;28;20082;-75
2022/05/02 03:57:08;;;;;;;8.70;6.55;;;;;;;12.06;65.83;100706.47;5096376;28;20052;-75
2022/05/02 03:59:33;;;;;;;7.78;6.38;;;;;;;12.03;65.70;100700.66;5063234;28;20028;-75
2022/05/02 04:01:59;;;;;;;9.27;6.53;;;;;;;12.06;65.43;100709.25;5066769;28;20024;-75
2022/05/02 04:04:24;;;;;;;8.82;6.32;;;;;;;12.03;65.73;100707.03;5046570;28;20055;-75
2022/05/02 04:06:50;;;;;;;10.77;6.85;;;;;;;12.01;66.51;100714.88;5111457;28;20383;-75
2022/05/02 04:09:15;;;;;;;8.55;6.63;;;;;;;11.99;65.49;100710.75;5115067;28;20027;-75
2022/05/02 04:11:41;;;;;;;7.90;6.40;;;;;;;11.98;65.96;100709.91;5118245;28;20037;-75
2022/05/02 04:14:06;;;;;;;8.32;6.88;;;;;;;11.98;66.37;100714.63;5117899;28;20065;-75
2022/05/02 04:16:32;;;;;;;7.60;6.15;;;;;;;11.92;65.75;100716.66;5118081;28;20038;-75
2022/05/02 04:18:57;;;;;;;11.13;6.82;;;;;;;11.90;66.54;100716.16;5127035;27;20035;-75
2022/05/02 04:21:23;;;;;;;8.23;6.38;;;;;;;11.90;66.94;100718.94;5079499;28;20078;-75
2022/05/02 04:23:49;;;;;;;6.95;5.82;;;;;;;11.87;66.67;100713.09;5078776;28;20506;-75
2022/05/02 04:26:14;;;;;;;8.18;6.63;;;;;;;11.84;67.32;100717.31;5099647;28;20026;-75
2022/05/02 04:28:40;;;;;;;9.02;6.38;;;;;;;11.84;67.55;100717.31;5099763;28;20463;-75
2022/05/02 04:31:05;;;;;;;9.93;7.43;;;;;;;11.82;67.40;100720.38;5099224;28;20031;-75
2022/05/02 04:33:31;;;;;;;8.32;6.55;;;;;;;11.81;68.03;100729.00;5082776;28;20030;-75
2022/05/02 04:35:56;;;;;;;8.18;6.40;;;;;;;11.81;68.49;100721.50;5099336;28;20387;-75
2022/05/02 04:38:22;;;;;;;9.48;6.38;;;;;;;11.77;68.37;100723.22;5117430;28;20476;-75
2022/05/02 04:40:48;;;;;;;8.48;6.22;;;;;;;11.77;67.47;100720.44;5095352;28;20058;-75
2022/05/02 04:43:14;;;;;;;10.48;6.75;;;;;;;11.76;68.30;100726.31;5117505;28;20132;-75
2022/05/02 04:45:40;;;;;;;8.68;7.03;;;;;;;11.76;68.13;100723.53;5082056;28;20027;-75
2022/05/02 04:48:05;;;;;;;9.40;6.57;;;;;;;11.72;69.12;100725.25;5078887;28;20031;-75
2022/05/02 04:50:31;;;;;;;8.55;6.57;;;;;;;11.73;68.98;100715.75;5055695;28;20063;-75
2022/05/02 04:52:56;;;;;;;8.57;6.03;;;;;;;11.71;69.14;100718.84;5078963;28;20088;-75
2022/05/02 04:55:22;;;;;;;8.10;6.25;;;;;;;11.71;69.32;100720.81;5078891;28;20052;-75
2022/05/02 04:57:47;;;;;;;10.35;6.53;;;;;;;11.68;68.83;100716.66;5099047;28;20064;-75
2022/05/02 05:00:16;;;;;;;7.90;6.57;;;;;;;11.68;69.38;100716.66;5098673;28;20030;-75
2022/05/02 05:02:42;;;;;;;8.88;6.40;;;;;;;11.66;68.84;100723.66;5117018;28;20059;-75
2022/05/02 05:05:08;;;;;;;9.60;6.43;;;;;;;11.65;69.28;100720.03;5116921;28;20479;-75
2022/05/02 05:07:36;;;;;;;9.73;6.60;;;;;;;11.68;68.68;100722.22;5098767;28;20028;-75
2022/05/02 05:10:01;;;;;;;9.13;6.25;;;;;;;11.63;69.39;100723.09;5075988;28;20024;-75
2022/05/02 05:12:43;;;;;;;9.95;6.63;;;;;;;11.61;69.97;100727.31;5078605;28;20039;-75
2022/05/02 05:18:52;;;;;;;9.90;6.60;;;;;;;11.61;69.86;100733.69;5117002;28;20027;-75
2022/05/02 05:21:52;;;;;;;9.32;6.75;;;;;;;11.58;69.80;100730.69;5078562;28;20028;-75
2022/05/02 05:24:23;;;;;;;9.50;6.60;;;;;;;11.60;69.75;100726.47;5084009;28;20114;-75
2022/05/02 05:27:15;;;;;;;8.30;6.45;;;;;;;11.57;70.16;100729.84;5091566;28;20495;-75
2022/05/02 05:29:53;;;;;;;10.45;6.80;;;;;;;11.59;70.82;100735.97;5080227;28;20032;-75
2022/05/02 05:32:25;;;;;;;8.65;6.80;;;;;;;11.58;70.12;100736.25;5099640;28;20491;-75
2022/05/02 05:34:59;;;;;;;7.97;6.40;;;;;;;11.58;71.26;100739.84;5081508;28;20548;-75
2022/05/02 05:37:55;;;;;;;8.13;6.82;;;;;;;11.58;71.26;100739.03;5070655;28;20040;-75
2022/05/02 05:40:28;;;;;;;8.98;6.80;;;;;;;11.57;70.62;100740.16;5107033;28;20059;-75
2022/05/02 05:43:21;;;;;;;8.75;6.90;;;;;;;11.58;71.52;100745.41;5078527;28;20028;-75
2022/05/02 05:46:07;;;;;;;8.95;6.63;;;;;;;11.63;71.65;100745.34;5110967;28;20070;-75
2022/05/02 05:48:38;;;;;;;10.60;7.22;;;;;;;11.65;71.41;100745.09;5078037;28;20095;-75
2022/05/02 05:51:26;;;;;;;9.88;7.30;;;;;;;11.64;72.36;100740.63;5096385;28;20061;-75
2022/05/02 05:54:12;;;;;;;8.95;6.70;;;;;;;11.65;71.82;100744.25;5081833;28;20389;-75
2022/05/02 05:56:53;;;;;;;7.65;6.45;;;;;;;11.65;71.12;100747.88;5063440;28;20052;-75
2022/05/02 05:59:26;;;;;;;9.70;6.88;;;;;;;11.66;71.19;100746.72;5097414;28;20035;-75
2022/05/02 06:02:01;;;;;;;9.52;7.03;;;;;;;11.69;70.92;100740.56;5098347;28;20024;-75
2022/05/02 06:04:27;;;;;;;8.98;7.13;;;;;;;11.68;70.41;100744.47;5116346;28;20039;-75
2022/05/02 06:06:54;;;;;;;9.82;7.40;;;;;;;11.68;71.04;100741.69;5062721;28;20047;-75
2022/05/02 06:09:20;;;;;;;11.38;7.43;;;;;;;11.69;72.39;100750.88;5046285;28;20429;-75
2022/05/02 06:11:48;;;;;;;9.85;8.07;;;;;;;11.69;71.62;100740.56;5053571;28;20097;-75
2022/05/02 06:14:14;;;;;;;10.57;7.53;;;;;;;11.70;71.62;100744.16;5061591;28;20400;-75
2022/05/02 06:19:26;;;;;;;12.73;8.43;;;;;;;11.71;72.73;100743.88;5084498;28;20392;-75
2022/05/02 06:21:52;;;;;;;12.63;9.13;;;;;;;11.71;76.05;100741.09;5079579;28;20024;-68
2022/05/02 06:24:18;;;;;;;13.48;9.50;;;;;;;11.72;74.58;100748.31;5082001;28;20162;-67
2022/05/02 06:26:44;;;;;;;11.18;7.90;;;;;;;11.75;73.89;100749.69;5079727;28;20035;-67
2022/05/02 06:29:10;;;;;;;11.90;8.60;;;;;;;11.73;76.68;100750.00;5084833;28;20032;-67
2022/05/02 06:31:36;;;;;;;16.48;9.45;;;;;;;11.72;80.37;100755.84;5084418;28;20482;-67
2022/05/02 06:34:02;;;;;;;12.75;9.48;;;;;;;11.75;75.82;100755.25;5101952;28;20027;-67
2022/05/02 06:36:45;;;;;;;12.77;9.95;;;;;;;11.79;76.42;100751.59;5084943;28;20122;-67
2022/05/02 06:39:18;;;;;;;11.57;9.18;;;;;;;11.83;77.23;100749.84;5102053;28;20388;-68
2022/05/02 06:42:09;;;;;;;10.18;7.72;;;;;;;11.90;73.45;100751.50;5119689;28;20032;-67
2022/05/02 06:44:53;;;;;;;9.30;7.13;;;;;;;11.95;73.00;100759.75;5080867;28;20032;-67
2022/05/02 06:47:29;;;;;;;10.48;7.00;;;;;;;12.01;72.27;100758.59;5113478;28;20032;-68
2022/05/02 06:49:56;;;;;;;12.48;7.07;;;;;;;12.05;72.15;100757.69;5101506;28;20024;-68
2022/05/02 06:52:33;;;;;;;9.65;7.97;;;;;;;12.11;73.17;100752.06;5084740;28;20047;-68
2022/05/02 06:55:32;;;;;;;10.13;7.93;;;;;;;12.17;74.97;100753.66;5064425;28;20106;-68
2022/05/02 06:58:12;;;;;;;12.80;9.88;;;;;;;12.18;79.11;100761.72;5048680;28;20144;-67
2022/05/02 07:00:43;;;;;;;13.05;8.75;;;;;;;12.23;77.59;100758.88;5089082;28;20027;-68
2022/05/02 07:03:13;;;;;;;15.27;10.73;;;;;;;12.24;80.62;100757.72;5078762;27;22391;-68
2022/05/02 07:05:59;;;;;;;12.43;8.60;;;;;;;12.29;78.30;100771.59;5106899;28;20479;-68
2022/05/02 07:08:29;;;;;;;10.43;8.38;;;;;;;12.35;77.31;100758.41;5083014;28;20024;-67
2022/05/02 07:10:58;;;;;;;13.63;10.80;;;;;;;12.40;78.54;100763.09;5071798;28;20032;-67
2022/05/02 07:14:02;;;;;;;18.13;10.63;;;;;;;12.40;81.44;100765.88;5065665;28;20042;-68
2022/05/02 07:16:28;;;;;;;15.07;9.02;;;;;;;12.47;78.80;100763.53;4996968;28;20061;-67
2022/05/02 07:19:30;;;;;;;13.95;9.57;;;;;;;12.54;78.46;100772.34;5026272;28;20048;-68
2022/05/02 07:21:58;;;;;;;16.70;10.23;;;;;;;12.60;78.57;100771.16;5116723;28;20050;-68
2022/05/02 07:24:38;;;;;;;13.98;10.65;;;;;;;12.61;79.36;100767.22;5101046;28;20852;-68
2022/05/02 07:27:22;;;;;;;14.25;9.15;;;;;;;12.71;78.48;100767.06;5118914;28;20035;-67
2022/05/02 07:29:49;;;;;;;14.00;10.20;;;;;;;12.75;78.45;100773.69;5118574;28;20510;-67
2022/05/02 07:32:14;;;;;;;14.05;9.30;;;;;;;12.82;77.76;100773.31;5064091;28;20510;-67
2022/05/02 07:34:40;;;;;;;16.40;11.20;;;;;;;12.87;80.16;100767.69;5083633;28;20036;-68
2022/05/02 07:37:05;;;;;;;16.30;10.90;;;;;;;12.96;78.21;100765.03;5083996;28;20023;-68
2022/05/02 07:39:32;;;;;;;21.20;10.13;;;;;;;13.04;77.40;100761.53;5083252;28;20099;-68
2022/05/02 07:42:00;;;;;;;14.15;10.77;;;;;;;13.09;77.15;100767.03;5046922;28;20024;-68
2022/05/02 07:44:29;;;;;;;13.85;9.93;;;;;;;13.16;76.14;100767.47;5114812;28;20041;-68
2022/05/02 07:46:54;;;;;;;15.85;11.18;;;;;;;13.19;77.72;100771.59;5063656;28;20498;-68
2022/05/02 07:49:22;;;;;;;14.15;9.15;;;;;;;13.31;76.37;100773.94;5063271;28;20028;-67
2022/05/02 07:51:50;;;;;;;14.88;9.70;;;;;;;13.37;75.50;100778.28;5080065;28;20020;-68
2022/05/02 07:54:25;;;;;;;14.75;10.57;;;;;;;13.41;74.54;100780.16;5063498;28;20028;-68
2022/05/02 07:56:52;;;;;;;12.40;10.00;;;;;;;13.51;73.50;100778.31;5079888;28;20088;-68
2022/05/02 07:59:23;;;;;;;17.20;10.65;;;;;;;13.56;74.05;100783.78;5073159;28;20155;-68
2022/05/02 08:01:49;;;;;;;16.48;10.55;;;;;;;13.62;73.10;100771.41;5063710;28;20494;-68
2022/05/02 08:04:14;;;;;;;16.48;10.35;;;;;;;13.72;72.96;100774.00;5080893;28;20027;-68
2022/05/02 08:06:51;;;;;;;18.25;9.40;;;;;;;13.80;71.40;100776.06;5076478;28;20111;-68
2022/05/02 08:09:34;;;;;;;18.55;10.23;;;;;;;13.87;71.05;100775.66;5077701;28;20028;-68
2022/05/02 08:12:24;;;;;;;16.38;10.35;;;;;;;13.92;70.59;100774.75;5115048;28;20035;-68
2022/05/02 08:14:52;;;;;;;15.35;10.95;;;;;;;14.00;70.49;100783.22;5079460;28;20028;-68
2022/05/02 08:17:27;;;;;;;13.80;9.57;;;;;;;14.10;69.65;100779.41;5079532;28;20107;-68
2022/05/02 08:20:15;;;;;;;16.30;10.15;;;;;;;14.20;69.54;100779.16;5112938;28;20035;-68
2022/05/02 08:28:39;;;;;;;15.75;9.80;;;;;;;14.63;66.30;100775.19;5087064;28;20031;-68
2022/05/02 08:31:21;;;;;;;11.45;9.60;;;;;;;14.81;66.84;100777.00;5062935;28;20110;-68
2022/05/02 08:34:00;;;;;;;13.38;9.05;;;;;;;14.98;65.44;100779.91;5099711;28;20024;-67
2022/05/02 08:36:51;;;;;;;13.60;9.02;;;;;;;15.20;65.02;100769.88;5078937;28;20020;-68
2022/05/02 08:39:19;;;;;;;12.38;8.85;;;;;;;15.41;64.79;100779.41;5039915;28;20056;-68
2022/05/02 08:42:18;;;;;;;12.25;9.15;;;;;;;15.64;63.71;100782.16;5062755;28;20046;-68
2022/05/02 08:45:09;;;;;;;14.38;9.50;;;;;;;15.83;61.75;100776.34;5060486;28;20043;-68
2022/05/02 08:48:06;;;;;;;20.58;10.50;;;;;;;16.12;60.69;100770.19;5094744;28;20511;-68
2022/05/02 08:50:51;;;;;;;16.83;8.88;;;;;;;16.37;58.66;100770.59;5099458;28;20073;-68
2022/05/02 08:53:38;;;;;;;11.55;8.30;;;;;;;16.61;58.39;100770.13;5080374;28;20024;-68
2022/05/02 08:56:39;;;;;;;18.88;8.60;;;;;;;16.84;58.68;100770.81;5097724;28;20453;-68
2022/05/02 08:59:33;;;;;;;16.40;9.23;;;;;;;17.09;56.73;100769.16;5066863;28;20497;-68
2022/05/02 09:02:40;;;;;;;10.23;7.95;;;;;;;17.42;56.35;100766.63;5067668;28;20040;-68
2022/05/02 09:05:27;;;;;;;11.95;8.93;;;;;;;17.67;57.05;100766.88;5021466;28;20124;-68
2022/05/02 09:08:05;;;;;;;11.13;8.85;;;;;;;17.81;55.02;100762.72;5014604;28;20643;-68
2022/05/02 09:10:59;;;;;;;12.60;8.48;;;;;;;18.04;54.55;100754.84;5014141;28;20478;-68
2022/05/02 09:13:46;;;;;;;12.88;8.75;;;;;;;18.25;53.53;100756.91;4999227;28;20410;-68
2022/05/02 09:16:24;;;;;;;12.50;9.23;;;;;;;18.37;52.61;100761.78;4978571;28;20037;-68
2022/05/02 09:18:49;;;;;;;11.88;8.63;;;;;;;18.54;52.04;100758.84;4994521;28;20042;-68
2022/05/02 09:21:30;;;;;;;12.30;8.88;;;;;;;18.66;51.88;100758.06;5006676;28;20042;-68
2022/05/02 09:24:02;;;;;;;11.68;7.55;;;;;;;18.82;52.06;100759.13;5014278;28;20036;-68
2022/05/02 09:26:48;;;;;;;9.73;7.57;;;;;;;19.00;50.53;100756.16;5017416;28;20042;-68
2022/05/02 09:29:35;;;;;;;12.65;8.60;;;;;;;19.11;50.11;100751.75;4994435;28;20038;-68
2022/05/02 09:32:17;;;;;;;11.88;8.05;;;;;;;19.24;49.78;100752.63;4985898;28;20038;-68
2022/05/02 09:34:57;;;;;;;11.25;6.78;;;;;;;19.40;50.13;100748.81;5014109;28;20033;-68
2022/05/02 09:37:38;;;;;;;13.02;8.57;;;;;;;19.45;48.90;100752.59;5014137;28;20030;-68
2022/05/02 09:40:12;;;;;;;13.10;8.30;;;;;;;19.59;48.47;100750.28;5063578;28;20457;-68
2022/05/02 09:42:56;;;;;;;13.77;9.63;;;;;;;19.60;48.17;100751.91;5098590;28;20027;-68
2022/05/02 09:51:53;;;;;;;9.98;7.05;;;;;;;19.92;47.29;100753.03;5106767;28;20479;-68
2022/05/02 09:58:00;;;;;;;11.75;7.45;;;;;;;20.22;47.17;100739.50;5061015;28;20068;-68
2022/05/02 10:01:07;;;;;;;10.93;8.05;;;;;;;20.30;46.53;100746.19;5049068;28;20354;-68
2022/05/02 10:03:40;;;;;;;15.63;8.95;;;;;;;20.41;45.89;100749.34;5071617;28;20041;-68
2022/05/02 10:06:18;;;;;;;11.52;9.07;;;;;;;20.42;45.79;100751.84;5045574;28;20040;-68
2022/05/02 10:08:45;;;;;;;10.38;7.82;;;;;;;20.52;45.05;100745.69;5060494;28;20067;-68
2022/05/02 10:11:38;;;;;;;15.80;9.18;;;;;;;20.60;44.21;100749.59;5065311;28;20365;-68
2022/05/02 10:14:18;;;;;;;10.50;7.78;;;;;;;20.76;45.51;100741.22;5099907;28;20046;-68
2022/05/02 10:17:06;;;;;;;9.65;7.50;;;;;;;20.96;44.98;100743.00;5080060;28;20050;-68
2022/05/02 10:19:56;;;;;;;10.55;6.72;;;;;;;21.17;44.02;100733.50;5033277;28;20503;-68
2022/05/02 10:22:36;;;;;;;10.82;8.35;;;;;;;21.30;43.13;100737.91;5100046;28;20543;-68
2022/05/02 10:25:19;;;;;;;9.57;7.90;;;;;;;21.54;43.13;100733.34;5072596;28;20032;-68
2022/05/02 10:27:56;;;;;;;10.63;8.02;;;;;;;21.65;40.90;100737.25;5061636;28;20025;-68
2022/05/02 10:30:22;;;;;;;10.25;7.35;;;;;;;21.79;40.98;100736.81;5067615;28;20028;-67
2022/05/02 10:32:50;;;;;;;11.25;7.30;;;;;;;21.95;40.82;100729.13;5037188;28;20503;-68
2022/05/02 10:35:18;;;;;;;10.43;6.45;;;;;;;22.13;41.30;100725.91;5069143;28;20048;-68
2022/05/02 10:37:49;;;;;;;9.98;6.53;;;;;;;22.27;42.22;100723.47;5055277;28;20082;-68
2022/05/02 10:40:15;;;;;;;9.07;7.50;;;;;;;22.37;41.73;100720.06;5057409;28;20498;-68
2022/05/02 10:42:51;;;;;;;10.43;6.70;;;;;;;22.59;41.98;100723.34;5055124;28;20028;-69
2022/05/02 10:45:16;;;;;;;11.18;6.63;;;;;;;22.65;41.47;100717.03;5065801;28;20032;-69
2022/05/02 10:47:55;;;;;;;13.10;7.78;;;;;;;22.75;41.18;100715.63;5070817;28;20042;-68
2022/05/02 10:50:34;;;;;;;9.50;7.03;;;;;;;22.93;40.75;100711.16;5067010;28;20081;-68
2022/05/02 10:53:03;;;;;;;11.52;7.65;;;;;;;23.06;40.83;100711.84;5058769;28;20020;-68
2022/05/02 10:55:32;;;;;;;9.73;7.55;;;;;;;22.87;39.44;100720.31;5096927;27;20064;-69
2022/05/02 10:58:03;;;;;;;11.00;7.80;;;;;;;22.68;39.50;100715.47;5061064;28;20568;-68
2022/05/02 11:00:29;;;;;;;11.50;8.15;;;;;;;22.82;38.24;100721.44;5068072;28;20025;-69
2022/05/02 11:03:04;;;;;;;6.88;5.70;;;;;;;22.79;38.17;100710.88;5067111;28;20038;-68
2022/05/02 11:05:54;;;;;;;10.68;6.45;;;;;;;22.80;38.10;100711.69;5065576;28;20024;-68
2022/05/02 11:08:49;;;;;;;8.35;6.35;;;;;;;22.85;38.35;100700.06;5065726;28;20032;-69
2022/05/02 11:11:34;;;;;;;7.63;6.50;;;;;;;22.91;39.47;100707.88;5098983;28;20040;-68
2022/05/02 11:14:25;;;;;;;8.30;6.50;;;;;;;23.00;39.27;100698.34;5098085;28;20039;-68
2022/05/02 11:17:08;;;;;;;8.00;5.95;;;;;;;23.13;39.96;100705.50;5095899;28;20028;-68
2022/05/02 11:22:30;;;;;;;11.13;6.78;;;;;;;23.02;38.27;100701.66;5103072;28;20035;-68
2022/05/02 11:25:08;;;;;;;10.00;6.20;;;;;;;23.15;37.84;100692.59;5073713;28;20032;-68
2022/05/02 11:27:56;;;;;;;10.02;6.93;;;;;;;23.04;38.21;100696.41;5079651;28;20211;-76
2022/05/02 11:30:28;;;;;;;7.18;5.55;;;;;;;23.12;38.36;100695.34;5078258;28;20060;-76
2022/05/02 11:33:10;;;;;;;7.80;6.20;;;;;;;23.15;38.44;100689.78;5078334;28;20035;-75
2022/05/02 11:35:36;;;;;;;6.57;5.47;;;;;;;23.28;38.11;100681.09;5078019;28;20058;-75
2022/05/02 11:38:07;;;;;;;10.10;6.38;;;;;;;23.25;38.67;100684.69;5072984;28;20422;-75
2022/05/02 11:40:42;;;;;;;8.43;6.75;;;;;;;23.20;38.83;100685.78;5094348;28;20027;-75
2022/05/02 11:43:08;;;;;;;10.02;7.13;;;;;;;23.18;37.37;100682.53;5098394;28;20028;-76
2022/05/02 11:45:44;;;;;;;9.75;7.05;;;;;;;23.17;38.27;100678.88;5063446;28;20028;-75
2022/05/02 11:48:27;;;;;;;9.23;6.50;;;;;;;23.35;37.82;100672.72;5080373;28;20039;-75
2022/05/02 11:50:55;;;;;;;10.10;6.28;;;;;;;23.48;37.94;100673.34;5098221;28;20036;-75
2022/05/02 11:53:21;;;;;;;9.77;6.45;;;;;;;23.59;37.71;100674.34;5064068;28;20035;-75
2022/05/02 11:55:46;;;;;;;8.23;7.40;;;;;;;23.60;37.34;100673.16;5068639;28;20040;-75
2022/05/02 11:58:24;;;;;;;10.35;7.28;;;;;;;23.49;37.36;100669.34;5094601;28;20063;-75
2022/05/02 12:00:58;;;;;;;11.27;8.02;;;;;;;23.45;38.08;100674.91;5079716;28;20135;-75
2022/05/02 12:03:25;;;;;;;10.82;6.38;;;;;;;23.49;37.23;100666.50;5087615;28;20403;-75
2022/05/02 12:05:55;;;;;;;8.70;6.55;;;;;;;23.41;38.45;100657.03;5102872;28;20035;-75
2022/05/02 12:08:39;;;;;;;9.15;6.43;;;;;;;23.31;37.47;100666.97;5070509;28;20480;-75
2022/05/02 12:11:09;;;;;;;10.65;7.75;;;;;;;23.09;38.28;100668.59;5062774;28;20040;-75
2022/05/02 12:13:40;;;;;;;13.10;8.23;;;;;;;22.77;39.17;100676.44;5109081;28;20523;-75